sensor_id;sensor_type;location;lat;lon;timestamp;temperature;humidity
16995;DHT22;8614;48.522;9.206;2022-07-29T00:00:51;18.60;99.90
16995;DHT22;8614;48.522;9.206;2022-07-29T00:03:17;18.60;99.90
16995;DHT22;8614;48.522;9.206;2022-07-29T00:05:44;18.60;99.90
16995;DHT22;8614;48.522;9.206;2022-07-29T00:08:11;18.60;99.90
16995;DHT22;8614;48.522;9.206;2022-07-29T00:10:38;18.60;99.90
16995;DHT22;8614;48.522;9.206;2022-07-29T00:13:06;18.60;99.90
16995;DHT22;8614;48.522;9.206;2022-07-29T00:15:33;18.60;99.90
16995;DHT22;8614;48.522;9.206;2022-07-29T00:17:59;18.50;99.90
16995;DHT22;8614;48.522;9.206;2022-07-29T00:20:26;18.40;99.90
16995;DHT22;8614;48.522;9.206;2022-07-29T00:22:53;18.40;99.90
16995;DHT22;8614;48.522;9.206;2022-07-29T00:25:20;18.40;99.90
16995;DHT22;8614;48.522;9.206;2022-07-29T00:27:47;18.30;99.90
16995;DHT22;8614;48.522;9.206;2022-07-29T00:30:15;18.30;99.90
16995;DHT22;8614;48.522;9.206;2022-07-29T00:32:42;18.30;99.90
16995;DHT22;8614;48.522;9.206;2022-07-29T00:35:09;18.20;99.90
16995;DHT22;8614;48.522;9.206;2022-07-29T00:37:53;18.20;99.90
16995;DHT22;8614;48.522;9.206;2022-07-29T00:40:20;18.20;99.90
16995;DHT22;8614;48.522;9.206;2022-07-29T00:42:50;18.20;99.90
16995;DHT22;8614;48.522;9.206;2022-07-29T00:45:19;18.20;99.90
16995;DHT22;8614;48.522;9.206;2022-07-29T00:47:47;18.10;99.90
16995;DHT22;8614;48.522;9.206;2022-07-29T00:50:14;18.10;99.90
16995;DHT22;8614;48.522;9.206;2022-07-29T00:52:41;18.10;99.90
16995;DHT22;8614;48.522;9.206;2022-07-29T00:55:10;18.00;99.90
16995;DHT22;8614;48.522;9.206;2022-07-29T00:57:38;17.90;99.90
16995;DHT22;8614;48.522;9.206;2022-07-29T01:00:13;17.90;99.90
16995;DHT22;8614;48.522;9.206;2022-07-29T01:02:42;17.80;99.90
16995;DHT22;8614;48.522;9.206;2022-07-29T01:05:09;17.80;99.90
16995;DHT22;8614;48.522;9.206;2022-07-29T01:07:37;17.80;99.90
16995;DHT22;8614;48.522;9.206;2022-07-29T01:10:07;17.70;99.90
16995;DHT22;8614;48.522;9.206;2022-07-29T01:12:35;17.70;99.90
16995;DHT22;8614;48.522;9.206;2022-07-29T01:15:06;17.70;99.90
16995;DHT22;8614;48.522;9.206;2022-07-29T01:17:49;17.70;99.90
16995;DHT22;8614;48.522;9.206;2022-07-29T01:20:25;17.70;99.90
16995;DHT22;8614;48.522;9.206;2022-07-29T01:26:15;17.70;99.90
16995;DHT22;8614;48.522;9.206;2022-07-29T01:29:07;17.70;99.90
16995;DHT22;8614;48.522;9.206;2022-07-29T01:31:43;17.70;99.90
16995;DHT22;8614;48.522;9.206;2022-07-29T01:34:17;17.70;99.90
16995;DHT22;8614;48.522;9.206;2022-07-29T01:36:48;17.70;99.90
16995;DHT22;8614;48.522;9.206;2022-07-29T01:39:19;17.70;99.90
16995;DHT22;8614;48.522;9.206;2022-07-29T01:41:50;17.70;99.90
16995;DHT22;8614;48.522;9.206;2022-07-29T01:44:27;17.70;99.90
16995;DHT22;8614;48.522;9.206;2022-07-29T01:47:00;17.60;99.90
16995;DHT22;8614;48.522;9.206;2022-07-29T01:49:29;17.60;99.90
16995;DHT22;8614;48.522;9.206;2022-07-29T01:52:01;17.60;99.90
16995;DHT22;8614;48.522;9.206;2022-07-29T01:54:35;17.50;99.90
16995;DHT22;8614;48.522;9.206;2022-07-29T01:57:04;17.60;99.90
16995;DHT22;8614;48.522;9.206;2022-07-29T01:59:35;17.60;99.90
16995;DHT22;8614;48.522;9.206;2022-07-29T02:02:05;17.60;99.90
16995;DHT22;8614;48.522;9.206;2022-07-29T02:04:34;17.50;99.90
16995;DHT22;8614;48.522;9.206;2022-07-29T02:07:05;17.60;99.90
16995;DHT22;8614;48.522;9.206;2022-07-29T02:09:34;17.50;99.90
16995;DHT22;8614;48.522;9.206;2022-07-29T02:12:03;17.40;99.90
16995;DHT22;8614;48.522;9.206;2022-07-29T02:14:34;17.40;99.90
16995;DHT22;8614;48.522;9.206;2022-07-29T02:17:02;17.40;99.90
16995;DHT22;8614;48.522;9.206;2022-07-29T02:19:32;17.50;99.90
16995;DHT22;8614;48.522;9.206;2022-07-29T02:22:00;17.40;99.90
16995;DHT22;8614;48.522;9.206;2022-07-29T02:24:28;17.40;99.90
16995;DHT22;8614;48.522;9.206;2022-07-29T02:26:56;17.40;99.90
16995;DHT22;8614;48.522;9.206;2022-07-29T02:29:26;17.40;99.90
16995;DHT22;8614;48.522;9.206;2022-07-29T02:31:57;17.40;99.90
16995;DHT22;8614;48.522;9.206;2022-07-29T02:34:25;17.40;99.90
16995;DHT22;8614;48.522;9.206;2022-07-29T02:36:54;17.40;99.90
16995;DHT22;8614;48.522;9.206;2022-07-29T02:39:22;17.40;99.90
16995;DHT22;8614;48.522;9.206;2022-07-29T02:41:54;17.40;99.90
16995;DHT22;8614;48.522;9.206;2022-07-29T02:44:24;17.30;99.90
16995;DHT22;8614;48.522;9.206;2022-07-29T02:46:54;17.30;99.90
16995;DHT22;8614;48.522;9.206;2022-07-29T02:49:33;17.30;99.90
16995;DHT22;8614;48.522;9.206;2022-07-29T02:52:02;17.40;99.90
16995;DHT22;8614;48.522;9.206;2022-07-29T02:54:33;17.40;99.90
16995;DHT22;8614;48.522;9.206;2022-07-29T02:57:06;17.30;99.90
16995;DHT22;8614;48.522;9.206;2022-07-29T02:59:36;17.30;99.90
16995;DHT22;8614;48.522;9.206;2022-07-29T03:02:05;17.30;99.90
16995;DHT22;8614;48.522;9.206;2022-07-29T03:04:34;17.30;99.90
16995;DHT22;8614;48.522;9.206;2022-07-29T03:07:03;17.30;99.90
16995;DHT22;8614;48.522;9.206;2022-07-29T03:09:31;17.30;99.90
16995;DHT22;8614;48.522;9.206;2022-07-29T03:11:59;17.20;99.90
16995;DHT22;8614;48.522;9.206;2022-07-29T03:14:27;17.20;99.90
16995;DHT22;8614;48.522;9.206;2022-07-29T03:16:54;17.20;99.90
16995;DHT22;8614;48.522;9.206;2022-07-29T03:19:22;17.20;99.90
16995;DHT22;8614;48.522;9.206;2022-07-29T03:21:50;17.20;99.90
16995;DHT22;8614;48.522;9.206;2022-07-29T03:24:29;17.30;99.90
16995;DHT22;8614;48.522;9.206;2022-07-29T03:26:56;17.20;99.90
16995;DHT22;8614;48.522;9.206;2022-07-29T03:29:23;17.20;99.90
16995;DHT22;8614;48.522;9.206;2022-07-29T03:31:51;17.20;99.90
16995;DHT22;8614;48.522;9.206;2022-07-29T03:34:18;17.10;99.90
16995;DHT22;8614;48.522;9.206;2022-07-29T03:36:44;17.10;99.90
16995;DHT22;8614;48.522;9.206;2022-07-29T03:39:15;17.10;99.90
16995;DHT22;8614;48.522;9.206;2022-07-29T03:41:44;17.10;99.90
16995;DHT22;8614;48.522;9.206;2022-07-29T03:44:13;17.00;99.90
16995;DHT22;8614;48.522;9.206;2022-07-29T03:46:43;17.00;99.90
16995;DHT22;8614;48.522;9.206;2022-07-29T03:49:11;17.00;99.90
16995;DHT22;8614;48.522;9.206;2022-07-29T03:51:39;17.00;99.90
16995;DHT22;8614;48.522;9.206;2022-07-29T03:54:06;17.00;99.90
16995;DHT22;8614;48.522;9.206;2022-07-29T03:56:38;17.00;99.90
16995;DHT22;8614;48.522;9.206;2022-07-29T03:59:06;17.00;99.90
16995;DHT22;8614;48.522;9.206;2022-07-29T04:01:34;17.00;99.90
16995;DHT22;8614;48.522;9.206;2022-07-29T04:04:01;17.00;99.90
16995;DHT22;8614;48.522;9.206;2022-07-29T04:06:30;17.10;99.90
16995;DHT22;8614;48.522;9.206;2022-07-29T04:09:03;17.10;99.90
16995;DHT22;8614;48.522;9.206;2022-07-29T04:11:30;17.10;99.90
16995;DHT22;8614;48.522;9.206;2022-07-29T04:13:58;17.20;99.90
16995;DHT22;8614;48.522;9.206;2022-07-29T04:16:25;17.20;99.90
16995;DHT22;8614;48.522;9.206;2022-07-29T04:18:52;17.20;99.90
16995;DHT22;8614;48.522;9.206;2022-07-29T04:21:18;17.20;99.90
16995;DHT22;8614;48.522;9.206;2022-07-29T04:23:45;17.20;99.90
16995;DHT22;8614;48.522;9.206;2022-07-29T04:26:15;17.20;99.90
16995;DHT22;8614;48.522;9.206;2022-07-29T04:28:42;17.20;99.90
16995;DHT22;8614;48.522;9.206;2022-07-29T04:31:11;17.20;99.90
16995;DHT22;8614;48.522;9.206;2022-07-29T04:33:38;17.20;99.90
16995;DHT22;8614;48.522;9.206;2022-07-29T04:36:05;17.20;99.90
16995;DHT22;8614;48.522;9.206;2022-07-29T04:38:32;17.20;99.90
16995;DHT22;8614;48.522;9.206;2022-07-29T04:40:58;17.30;99.90
16995;DHT22;8614;48.522;9.206;2022-07-29T04:43:25;17.30;99.90
16995;DHT22;8614;48.522;9.206;2022-07-29T04:45:52;17.30;99.90
16995;DHT22;8614;48.522;9.206;2022-07-29T04:48:20;17.30;99.90
16995;DHT22;8614;48.522;9.206;2022-07-29T04:50:47;17.30;99.90
16995;DHT22;8614;48.522;9.206;2022-07-29T04:53:13;17.30;99.90
16995;DHT22;8614;48.522;9.206;2022-07-29T04:55:40;17.30;99.90
16995;DHT22;8614;48.522;9.206;2022-07-29T04:58:07;17.30;99.90
16995;DHT22;8614;48.522;9.206;2022-07-29T05:00:34;17.40;99.90
16995;DHT22;8614;48.522;9.206;2022-07-29T05:03:01;17.50;99.90
16995;DHT22;8614;48.522;9.206;2022-07-29T05:05:29;17.40;99.90
16995;DHT22;8614;48.522;9.206;2022-07-29T05:07:56;17.50;99.90
16995;DHT22;8614;48.522;9.206;2022-07-29T05:10:23;17.60;99.90
16995;DHT22;8614;48.522;9.206;2022-07-29T05:12:49;17.70;99.90
16995;DHT22;8614;48.522;9.206;2022-07-29T05:15:16;17.70;99.90
16995;DHT22;8614;48.522;9.206;2022-07-29T05:17:44;17.80;99.90
16995;DHT22;8614;48.522;9.206;2022-07-29T05:20:11;18.00;99.90
16995;DHT22;8614;48.522;9.206;2022-07-29T05:22:39;18.10;99.90
16995;DHT22;8614;48.522;9.206;2022-07-29T05:25:06;18.20;99.90
16995;DHT22;8614;48.522;9.206;2022-07-29T05:27:35;18.30;99.90
16995;DHT22;8614;48.522;9.206;2022-07-29T05:30:02;18.40;99.90
16995;DHT22;8614;48.522;9.206;2022-07-29T05:32:29;18.50;99.90
16995;DHT22;8614;48.522;9.206;2022-07-29T05:34:55;18.70;99.90
16995;DHT22;8614;48.522;9.206;2022-07-29T05:37:22;18.80;99.90
16995;DHT22;8614;48.522;9.206;2022-07-29T05:39:50;18.90;99.90
16995;DHT22;8614;48.522;9.206;2022-07-29T05:42:17;19.10;99.90
16995;DHT22;8614;48.522;9.206;2022-07-29T05:44:44;19.30;99.90
16995;DHT22;8614;48.522;9.206;2022-07-29T05:47:11;19.40;99.90
16995;DHT22;8614;48.522;9.206;2022-07-29T05:49:37;19.70;99.90
16995;DHT22;8614;48.522;9.206;2022-07-29T05:52:04;19.90;99.90
16995;DHT22;8614;48.522;9.206;2022-07-29T05:54:31;20.40;99.90
16995;DHT22;8614;48.522;9.206;2022-07-29T05:56:59;20.70;99.90
16995;DHT22;8614;48.522;9.206;2022-07-29T05:59:26;21.10;99.90
16995;DHT22;8614;48.522;9.206;2022-07-29T06:01:54;21.10;99.90
16995;DHT22;8614;48.522;9.206;2022-07-29T06:04:22;21.10;99.90
16995;DHT22;8614;48.522;9.206;2022-07-29T06:06:49;21.10;99.90
16995;DHT22;8614;48.522;9.206;2022-07-29T06:09:15;21.10;99.90
16995;DHT22;8614;48.522;9.206;2022-07-29T06:11:42;21.00;99.90
16995;DHT22;8614;48.522;9.206;2022-07-29T06:14:10;21.00;99.90
16995;DHT22;8614;48.522;9.206;2022-07-29T06:16:37;21.00;99.90
16995;DHT22;8614;48.522;9.206;2022-07-29T06:19:04;21.20;99.90
16995;DHT22;8614;48.522;9.206;2022-07-29T06:21:31;21.50;99.90
16995;DHT22;8614;48.522;9.206;2022-07-29T06:23:57;21.60;99.90
16995;DHT22;8614;48.522;9.206;2022-07-29T06:26:24;21.70;99.90
16995;DHT22;8614;48.522;9.206;2022-07-29T06:28:51;21.80;99.90
16995;DHT22;8614;48.522;9.206;2022-07-29T06:31:19;21.90;99.90
16995;DHT22;8614;48.522;9.206;2022-07-29T06:33:46;21.90;99.90
16995;DHT22;8614;48.522;9.206;2022-07-29T06:36:13;22.00;99.90
16995;DHT22;8614;48.522;9.206;2022-07-29T06:38:39;22.10;99.90
16995;DHT22;8614;48.522;9.206;2022-07-29T06:41:08;22.30;99.90
16995;DHT22;8614;48.522;9.206;2022-07-29T06:43:39;22.50;99.90
16995;DHT22;8614;48.522;9.206;2022-07-29T06:46:08;23.00;99.90
16995;DHT22;8614;48.522;9.206;2022-07-29T06:48:37;23.40;99.90
16995;DHT22;8614;48.522;9.206;2022-07-29T06:51:05;24.00;99.90
16995;DHT22;8614;48.522;9.206;2022-07-29T06:53:33;24.60;99.90
16995;DHT22;8614;48.522;9.206;2022-07-29T06:56:00;24.90;99.90
16995;DHT22;8614;48.522;9.206;2022-07-29T06:58:28;25.20;99.90
16995;DHT22;8614;48.522;9.206;2022-07-29T07:00:55;25.30;99.90
16995;DHT22;8614;48.522;9.206;2022-07-29T07:03:23;25.80;99.90
16995;DHT22;8614;48.522;9.206;2022-07-29T07:05:52;26.30;99.90
16995;DHT22;8614;48.522;9.206;2022-07-29T07:08:20;26.60;99.90
16995;DHT22;8614;48.522;9.206;2022-07-29T07:10:48;26.70;99.90
16995;DHT22;8614;48.522;9.206;2022-07-29T07:13:15;26.90;99.90
16995;DHT22;8614;48.522;9.206;2022-07-29T07:15:43;27.10;99.90
16995;DHT22;8614;48.522;9.206;2022-07-29T07:18:10;27.20;99.90
16995;DHT22;8614;48.522;9.206;2022-07-29T07:20:37;26.80;99.90
16995;DHT22;8614;48.522;9.206;2022-07-29T07:23:05;26.40;99.90
16995;DHT22;8614;48.522;9.206;2022-07-29T07:25:32;26.10;99.90
16995;DHT22;8614;48.522;9.206;2022-07-29T07:27:59;25.80;99.90
16995;DHT22;8614;48.522;9.206;2022-07-29T07:30:26;25.60;99.90
16995;DHT22;8614;48.522;9.206;2022-07-29T07:32:53;25.90;99.90
16995;DHT22;8614;48.522;9.206;2022-07-29T07:35:19;26.20;99.90
16995;DHT22;8614;48.522;9.206;2022-07-29T07:37:46;26.50;99.90
16995;DHT22;8614;48.522;9.206;2022-07-29T07:40:14;26.90;99.90
16995;DHT22;8614;48.522;9.206;2022-07-29T07:42:41;27.30;99.90
16995;DHT22;8614;48.522;9.206;2022-07-29T07:45:09;27.80;99.90
16995;DHT22;8614;48.522;9.206;2022-07-29T07:47:36;28.30;99.90
16995;DHT22;8614;48.522;9.206;2022-07-29T07:50:04;28.40;99.90
16995;DHT22;8614;48.522;9.206;2022-07-29T07:52:31;28.50;99.90
16995;DHT22;8614;48.522;9.206;2022-07-29T07:54:58;28.30;99.90
16995;DHT22;8614;48.522;9.206;2022-07-29T07:57:26;28.30;99.90
16995;DHT22;8614;48.522;9.206;2022-07-29T07:59:53;28.50;99.90
16995;DHT22;8614;48.522;9.206;2022-07-29T08:02:20;28.80;99.90
16995;DHT22;8614;48.522;9.206;2022-07-29T08:04:47;29.00;99.90
16995;DHT22;8614;48.522;9.206;2022-07-29T08:07:13;29.30;99.90
16995;DHT22;8614;48.522;9.206;2022-07-29T08:09:41;29.50;99.90
16995;DHT22;8614;48.522;9.206;2022-07-29T08:12:07;29.60;99.90
16995;DHT22;8614;48.522;9.206;2022-07-29T08:14:36;29.50;99.90
16995;DHT22;8614;48.522;9.206;2022-07-29T08:17:02;29.70;99.90
16995;DHT22;8614;48.522;9.206;2022-07-29T08:19:29;29.90;99.90
16995;DHT22;8614;48.522;9.206;2022-07-29T08:21:56;29.80;99.90
16995;DHT22;8614;48.522;9.206;2022-07-29T08:24:23;30.00;99.90
16995;DHT22;8614;48.522;9.206;2022-07-29T08:27:08;30.20;99.90
16995;DHT22;8614;48.522;9.206;2022-07-29T08:29:36;30.40;99.90
16995;DHT22;8614;48.522;9.206;2022-07-29T08:32:04;30.20;99.90
16995;DHT22;8614;48.522;9.206;2022-07-29T08:34:32;30.40;99.90
16995;DHT22;8614;48.522;9.206;2022-07-29T08:36:58;30.50;99.90
16995;DHT22;8614;48.522;9.206;2022-07-29T08:39:25;30.70;99.90
16995;DHT22;8614;48.522;9.206;2022-07-29T08:41:52;30.60;99.90
16995;DHT22;8614;48.522;9.206;2022-07-29T08:44:20;30.90;99.90
16995;DHT22;8614;48.522;9.206;2022-07-29T08:46:49;30.90;99.90
16995;DHT22;8614;48.522;9.206;2022-07-29T08:49:16;30.70;99.90
16995;DHT22;8614;48.522;9.206;2022-07-29T08:51:44;30.80;99.90
16995;DHT22;8614;48.522;9.206;2022-07-29T08:54:16;30.80;99.90
16995;DHT22;8614;48.522;9.206;2022-07-29T08:56:44;31.00;99.90
16995;DHT22;8614;48.522;9.206;2022-07-29T08:59:13;31.00;99.90
16995;DHT22;8614;48.522;9.206;2022-07-29T09:01:40;31.00;99.90
16995;DHT22;8614;48.522;9.206;2022-07-29T09:04:12;31.10;99.90
16995;DHT22;8614;48.522;9.206;2022-07-29T09:06:43;31.30;99.90
16995;DHT22;8614;48.522;9.206;2022-07-29T09:09:11;31.50;99.90
16995;DHT22;8614;48.522;9.206;2022-07-29T09:11:39;31.70;99.90
16995;DHT22;8614;48.522;9.206;2022-07-29T09:14:06;31.40;99.60
16995;DHT22;8614;48.522;9.206;2022-07-29T09:16:52;31.20;99.90
16995;DHT22;8614;48.522;9.206;2022-07-29T09:19:25;31.00;99.90
16995;DHT22;8614;48.522;9.206;2022-07-29T09:21:53;30.80;99.90
16995;DHT22;8614;48.522;9.206;2022-07-29T09:24:35;30.80;99.90
16995;DHT22;8614;48.522;9.206;2022-07-29T09:27:08;31.00;99.90
16995;DHT22;8614;48.522;9.206;2022-07-29T09:29:35;30.80;99.90
16995;DHT22;8614;48.522;9.206;2022-07-29T09:32:06;30.40;99.90
16995;DHT22;8614;48.522;9.206;2022-07-29T09:34:36;30.30;99.90
16995;DHT22;8614;48.522;9.206;2022-07-29T09:37:03;30.20;99.90
16995;DHT22;8614;48.522;9.206;2022-07-29T09:39:32;30.20;99.90
16995;DHT22;8614;48.522;9.206;2022-07-29T09:42:01;30.20;99.90
16995;DHT22;8614;48.522;9.206;2022-07-29T09:44:41;30.40;99.90
16995;DHT22;8614;48.522;9.206;2022-07-29T09:47:08;30.50;99.90
16995;DHT22;8614;48.522;9.206;2022-07-29T09:49:51;30.70;99.90
16995;DHT22;8614;48.522;9.206;2022-07-29T09:52:18;30.50;99.90
16995;DHT22;8614;48.522;9.206;2022-07-29T09:54:45;30.40;99.90
16995;DHT22;8614;48.522;9.206;2022-07-29T09:57:24;30.60;99.90
16995;DHT22;8614;48.522;9.206;2022-07-29T09:59:59;31.30;99.90
16995;DHT22;8614;48.522;9.206;2022-07-29T10:02:30;31.90;99.90
16995;DHT22;8614;48.522;9.206;2022-07-29T10:04:59;31.80;99.00
16995;DHT22;8614;48.522;9.206;2022-07-29T10:07:27;31.80;97.90
16995;DHT22;8614;48.522;9.206;2022-07-29T10:10:09;32.00;99.30
16995;DHT22;8614;48.522;9.206;2022-07-29T10:12:48;32.30;99.90
16995;DHT22;8614;48.522;9.206;2022-07-29T10:15:15;32.40;98.40
16995;DHT22;8614;48.522;9.206;2022-07-29T10:17:42;32.30;98.50
16995;DHT22;8614;48.522;9.206;2022-07-29T10:20:11;31.80;97.50
16995;DHT22;8614;48.522;9.206;2022-07-29T10:22:39;30.90;98.20
16995;DHT22;8614;48.522;9.206;2022-07-29T10:25:07;30.60;99.10
16995;DHT22;8614;48.522;9.206;2022-07-29T10:27:35;30.80;99.80
16995;DHT22;8614;48.522;9.206;2022-07-29T10:30:02;31.20;99.80
16995;DHT22;8614;48.522;9.206;2022-07-29T10:32:53;31.60;98.90
16995;DHT22;8614;48.522;9.206;2022-07-29T10:35:32;31.70;98.30
16995;DHT22;8614;48.522;9.206;2022-07-29T10:38:10;31.40;97.00
16995;DHT22;8614;48.522;9.206;2022-07-29T10:40:49;31.20;98.60
16995;DHT22;8614;48.522;9.206;2022-07-29T10:43:40;30.70;97.80
16995;DHT22;8614;48.522;9.206;2022-07-29T10:46:08;30.70;98.10
16995;DHT22;8614;48.522;9.206;2022-07-29T10:49:06;30.90;98.30
16995;DHT22;8614;48.522;9.206;2022-07-29T10:52:03;31.10;98.50
16995;DHT22;8614;48.522;9.206;2022-07-29T10:54:38;30.70;98.40
16995;DHT22;8614;48.522;9.206;2022-07-29T10:57:15;30.70;98.50
16995;DHT22;8614;48.522;9.206;2022-07-29T10:59:42;30.40;97.20
16995;DHT22;8614;48.522;9.206;2022-07-29T11:02:42;30.20;97.90
16995;DHT22;8614;48.522;9.206;2022-07-29T11:05:10;29.80;99.20
16995;DHT22;8614;48.522;9.206;2022-07-29T11:07:40;29.70;99.10
16995;DHT22;8614;48.522;9.206;2022-07-29T11:10:26;29.80;99.40
16995;DHT22;8614;48.522;9.206;2022-07-29T11:12:53;30.00;98.40
16995;DHT22;8614;48.522;9.206;2022-07-29T11:15:21;30.10;98.40
16995;DHT22;8614;48.522;9.206;2022-07-29T11:18:08;30.30;99.20
16995;DHT22;8614;48.522;9.206;2022-07-29T11:20:40;30.40;98.30
16995;DHT22;8614;48.522;9.206;2022-07-29T11:23:23;30.70;98.40
16995;DHT22;8614;48.522;9.206;2022-07-29T11:26:12;30.80;97.20
16995;DHT22;8614;48.522;9.206;2022-07-29T11:28:50;30.60;97.10
16995;DHT22;8614;48.522;9.206;2022-07-29T11:31:29;30.50;96.50
16995;DHT22;8614;48.522;9.206;2022-07-29T11:34:19;30.50;98.20
16995;DHT22;8614;48.522;9.206;2022-07-29T11:37:15;30.50;98.90
16995;DHT22;8614;48.522;9.206;2022-07-29T11:39:44;30.00;98.30
16995;DHT22;8614;48.522;9.206;2022-07-29T11:42:37;29.50;99.20
16995;DHT22;8614;48.522;9.206;2022-07-29T11:45:05;28.90;99.90
16995;DHT22;8614;48.522;9.206;2022-07-29T11:47:35;28.60;99.90
16995;DHT22;8614;48.522;9.206;2022-07-29T11:50:04;28.60;99.90
16995;DHT22;8614;48.522;9.206;2022-07-29T11:52:33;28.80;99.70
16995;DHT22;8614;48.522;9.206;2022-07-29T11:55:05;28.50;99.50
16995;DHT22;8614;48.522;9.206;2022-07-29T11:57:34;28.50;99.90
16995;DHT22;8614;48.522;9.206;2022-07-29T12:00:04;28.30;99.90
16995;DHT22;8614;48.522;9.206;2022-07-29T12:02:39;28.10;99.90
16995;DHT22;8614;48.522;9.206;2022-07-29T12:05:08;27.50;99.90
16995;DHT22;8614;48.522;9.206;2022-07-29T12:07:35;27.40;99.90
16995;DHT22;8614;48.522;9.206;2022-07-29T12:10:05;27.40;99.90
16995;DHT22;8614;48.522;9.206;2022-07-29T12:12:32;27.20;99.90
16995;DHT22;8614;48.522;9.206;2022-07-29T12:15:11;27.00;99.90
16995;DHT22;8614;48.522;9.206;2022-07-29T12:17:38;26.60;99.90
16995;DHT22;8614;48.522;9.206;2022-07-29T12:20:06;26.20;99.90
16995;DHT22;8614;48.522;9.206;2022-07-29T12:22:35;25.70;99.90
16995;DHT22;8614;48.522;9.206;2022-07-29T12:25:06;25.40;99.90
16995;DHT22;8614;48.522;9.206;2022-07-29T12:27:34;25.30;99.90
16995;DHT22;8614;48.522;9.206;2022-07-29T12:30:04;24.90;99.90
16995;DHT22;8614;48.522;9.206;2022-07-29T12:32:33;24.80;99.90
16995;DHT22;8614;48.522;9.206;2022-07-29T12:35:03;24.50;99.90
16995;DHT22;8614;48.522;9.206;2022-07-29T12:37:31;24.20;99.90
16995;DHT22;8614;48.522;9.206;2022-07-29T12:39:59;24.10;99.90
16995;DHT22;8614;48.522;9.206;2022-07-29T12:42:27;24.10;99.90
16995;DHT22;8614;48.522;9.206;2022-07-29T12:44:54;24.20;99.90
16995;DHT22;8614;48.522;9.206;2022-07-29T12:47:21;24.40;99.90
16995;DHT22;8614;48.522;9.206;2022-07-29T12:49:49;24.60;99.90
16995;DHT22;8614;48.522;9.206;2022-07-29T12:52:31;24.50;99.90
16995;DHT22;8614;48.522;9.206;2022-07-29T12:54:58;24.60;99.90
16995;DHT22;8614;48.522;9.206;2022-07-29T12:57:27;24.80;99.90
16995;DHT22;8614;48.522;9.206;2022-07-29T13:00:04;24.80;99.90
16995;DHT22;8614;48.522;9.206;2022-07-29T13:02:33;24.90;99.90
16995;DHT22;8614;48.522;9.206;2022-07-29T13:05:00;25.30;99.90
16995;DHT22;8614;48.522;9.206;2022-07-29T13:07:31;25.40;99.90
16995;DHT22;8614;48.522;9.206;2022-07-29T13:10:11;25.70;99.90
16995;DHT22;8614;48.522;9.206;2022-07-29T13:13:04;25.60;99.90
16995;DHT22;8614;48.522;9.206;2022-07-29T13:15:31;25.50;99.90
16995;DHT22;8614;48.522;9.206;2022-07-29T13:17:58;25.40;99.90
16995;DHT22;8614;48.522;9.206;2022-07-29T13:20:27;25.50;99.90
16995;DHT22;8614;48.522;9.206;2022-07-29T13:22:56;25.60;99.90
16995;DHT22;8614;48.522;9.206;2022-07-29T13:25:27;25.60;99.90
16995;DHT22;8614;48.522;9.206;2022-07-29T13:27:56;25.60;99.90
16995;DHT22;8614;48.522;9.206;2022-07-29T13:30:23;25.60;99.90
16995;DHT22;8614;48.522;9.206;2022-07-29T13:32:50;25.50;99.90
16995;DHT22;8614;48.522;9.206;2022-07-29T13:35:18;25.50;99.90
16995;DHT22;8614;48.522;9.206;2022-07-29T13:37:45;25.20;99.90
16995;DHT22;8614;48.522;9.206;2022-07-29T13:40:13;24.90;99.90
16995;DHT22;8614;48.522;9.206;2022-07-29T13:42:40;24.40;99.90
16995;DHT22;8614;48.522;9.206;2022-07-29T13:45:09;24.20;99.90
16995;DHT22;8614;48.522;9.206;2022-07-29T13:47:37;24.00;99.90
16995;DHT22;8614;48.522;9.206;2022-07-29T13:50:06;23.90;99.90
16995;DHT22;8614;48.522;9.206;2022-07-29T13:52:35;23.90;99.90
16995;DHT22;8614;48.522;9.206;2022-07-29T13:55:03;23.80;99.90
16995;DHT22;8614;48.522;9.206;2022-07-29T13:57:31;23.90;99.90
16995;DHT22;8614;48.522;9.206;2022-07-29T13:59:58;23.90;99.90
16995;DHT22;8614;48.522;9.206;2022-07-29T14:02:26;23.90;99.90
16995;DHT22;8614;48.522;9.206;2022-07-29T14:04:53;24.00;99.90
16995;DHT22;8614;48.522;9.206;2022-07-29T14:07:20;24.00;99.90
16995;DHT22;8614;48.522;9.206;2022-07-29T14:09:47;23.90;99.90
16995;DHT22;8614;48.522;9.206;2022-07-29T14:12:14;23.60;99.90
16995;DHT22;8614;48.522;9.206;2022-07-29T14:14:41;23.50;99.90
16995;DHT22;8614;48.522;9.206;2022-07-29T14:17:07;23.20;99.90
16995;DHT22;8614;48.522;9.206;2022-07-29T14:22:05;23.40;99.90
16995;DHT22;8614;48.522;9.206;2022-07-29T14:24:32;23.40;99.90
16995;DHT22;8614;48.522;9.206;2022-07-29T14:26:59;23.50;99.90
16995;DHT22;8614;48.522;9.206;2022-07-29T14:29:26;23.60;99.90
16995;DHT22;8614;48.522;9.206;2022-07-29T14:31:53;23.70;99.90
16995;DHT22;8614;48.522;9.206;2022-07-29T14:34:20;23.90;99.90
16995;DHT22;8614;48.522;9.206;2022-07-29T14:36:48;24.00;99.90
16995;DHT22;8614;48.522;9.206;2022-07-29T14:39:15;24.00;99.90
16995;DHT22;8614;48.522;9.206;2022-07-29T14:41:42;24.00;99.90
16995;DHT22;8614;48.522;9.206;2022-07-29T14:44:09;24.10;99.90
16995;DHT22;8614;48.522;9.206;2022-07-29T14:46:36;24.20;99.90
16995;DHT22;8614;48.522;9.206;2022-07-29T14:49:03;24.10;99.90
16995;DHT22;8614;48.522;9.206;2022-07-29T14:51:30;24.10;99.90
16995;DHT22;8614;48.522;9.206;2022-07-29T14:53:58;24.20;99.90
16995;DHT22;8614;48.522;9.206;2022-07-29T14:56:25;24.20;99.90
16995;DHT22;8614;48.522;9.206;2022-07-29T14:58:52;24.40;99.90
16995;DHT22;8614;48.522;9.206;2022-07-29T15:01:19;24.40;99.90
16995;DHT22;8614;48.522;9.206;2022-07-29T15:03:46;24.50;99.90
16995;DHT22;8614;48.522;9.206;2022-07-29T15:06:13;24.60;99.90
16995;DHT22;8614;48.522;9.206;2022-07-29T15:08:39;24.60;99.90
16995;DHT22;8614;48.522;9.206;2022-07-29T15:11:07;24.60;99.90
16995;DHT22;8614;48.522;9.206;2022-07-29T15:13:34;24.60;99.90
16995;DHT22;8614;48.522;9.206;2022-07-29T15:16:01;24.60;99.90
16995;DHT22;8614;48.522;9.206;2022-07-29T15:18:28;24.60;99.90
16995;DHT22;8614;48.522;9.206;2022-07-29T15:20:55;24.60;99.90
16995;DHT22;8614;48.522;9.206;2022-07-29T15:23:22;24.60;99.90
16995;DHT22;8614;48.522;9.206;2022-07-29T15:25:49;24.60;99.90
16995;DHT22;8614;48.522;9.206;2022-07-29T15:28:17;24.60;99.90
16995;DHT22;8614;48.522;9.206;2022-07-29T15:30:44;24.60;99.90
16995;DHT22;8614;48.522;9.206;2022-07-29T15:33:11;24.60;99.90
16995;DHT22;8614;48.522;9.206;2022-07-29T15:35:38;24.70;99.90
16995;DHT22;8614;48.522;9.206;2022-07-29T15:38:05;24.80;99.90
16995;DHT22;8614;48.522;9.206;2022-07-29T15:40:31;24.80;99.90
16995;DHT22;8614;48.522;9.206;2022-07-29T15:42:58;24.80;99.90
16995;DHT22;8614;48.522;9.206;2022-07-29T15:45:36;24.80;99.90
16995;DHT22;8614;48.522;9.206;2022-07-29T15:48:04;24.80;99.90
16995;DHT22;8614;48.522;9.206;2022-07-29T15:50:32;24.80;99.90
16995;DHT22;8614;48.522;9.206;2022-07-29T15:52:59;24.90;99.90
16995;DHT22;8614;48.522;9.206;2022-07-29T15:55:26;25.00;99.90
16995;DHT22;8614;48.522;9.206;2022-07-29T15:57:53;25.10;99.90
16995;DHT22;8614;48.522;9.206;2022-07-29T16:00:20;25.10;99.90
16995;DHT22;8614;48.522;9.206;2022-07-29T16:02:50;25.20;99.90
16995;DHT22;8614;48.522;9.206;2022-07-29T16:05:17;25.20;99.90